Time;durP1;ratioP1;P1;durP2;ratioP2;P2;SDS_P1;SDS_P2;PMS_P1;PMS_P2;Temp;Humidity;BMP_temperature;BMP_pressure;BME280_temperature;BME280_humidity;BME280_pressure;Samples;Min_cycle;Max_cycle;Signal;HPM_P1;HPM_P2
2022/08/23 00:00:47;;;;;;;1.75;1.50;;;23.60;95.00;;;;;;6212383;23;20017;-77
2022/08/23 00:03:14;;;;;;;5.25;1.80;;;23.60;95.20;;;;;;6211657;23;20088;-77
2022/08/23 00:05:40;;;;;;;2.55;1.90;;;23.50;95.20;;;;;;6212317;23;20520;-77
2022/08/23 00:08:06;;;;;;;3.70;1.80;;;23.50;95.30;;;;;;6211896;23;20004;-77
2022/08/23 00:10:31;;;;;;;3.65;1.70;;;23.50;95.20;;;;;;6212150;23;20384;-77
2022/08/23 00:12:57;;;;;;;1.70;1.60;;;23.50;95.70;;;;;;6213446;23;20001;-77
2022/08/23 00:15:24;;;;;;;3.55;1.80;;;23.40;96.60;;;;;;6214071;23;20313;-77
2022/08/23 00:17:49;;;;;;;1.67;1.58;;;23.40;96.80;;;;;;6213165;23;20009;-77
2022/08/23 00:20:18;;;;;;;7.18;2.13;;;23.30;96.50;;;;;;6213879;23;20034;-77
2022/08/23 00:22:44;;;;;;;4.20;2.05;;;23.30;96.50;;;;;;6212333;23;20004;-77
2022/08/23 00:25:11;;;;;;;2.35;1.73;;;23.30;96.30;;;;;;6213695;23;20001;-77
2022/08/23 00:27:37;;;;;;;2.53;1.77;;;23.30;96.20;;;;;;6213241;23;20071;-77
2022/08/23 00:30:07;;;;;;;2.38;1.67;;;23.30;96.20;;;;;;6212135;23;20032;-77
2022/08/23 00:32:35;;;;;;;2.17;1.70;;;23.20;96.20;;;;;;6213259;23;20039;-77
2022/08/23 00:35:02;;;;;;;2.22;1.75;;;23.20;96.10;;;;;;6212247;23;20009;-77
2022/08/23 00:37:31;;;;;;;3.47;1.85;;;23.20;96.30;;;;;;6212648;23;20080;-77
2022/08/23 00:39:57;;;;;;;1.75;1.65;;;23.20;95.70;;;;;;6213327;23;20008;-77
2022/08/23 00:48:08;;;;;;;1.85;1.75;;;23.20;95.60;;;;;;6213481;23;20108;-77
2022/08/23 00:50:51;;;;;;;1.65;1.48;;;23.20;95.70;;;;;;6213642;23;19996;-77
2022/08/23 00:53:22;;;;;;;1.55;1.40;;;23.30;95.60;;;;;;6212689;23;20424;-77
2022/08/23 00:55:53;;;;;;;1.98;1.65;;;23.20;95.50;;;;;;6213507;23;20155;-77
2022/08/23 00:58:20;;;;;;;3.45;1.85;;;23.20;95.70;;;;;;6211425;23;20043;-77
2022/08/23 01:00:49;;;;;;;1.50;1.40;;;23.20;95.70;;;;;;6211584;23;20032;-77
2022/08/23 01:03:15;;;;;;;1.50;1.40;;;23.20;95.70;;;;;;6213165;23;20007;-78
2022/08/23 01:06:03;;;;;;;2.00;1.80;;;23.20;95.60;;;;;;6212159;23;20567;-78
2022/08/23 01:08:31;;;;;;;1.75;1.63;;;23.20;95.70;;;;;;6211113;23;20009;-77
2022/08/23 01:11:10;;;;;;;2.35;1.52;;;23.20;95.30;;;;;;6213222;23;20493;-77
2022/08/23 01:14:02;;;;;;;2.35;1.60;;;23.20;95.50;;;;;;6213005;23;20328;-77
2022/08/23 01:16:52;;;;;;;3.37;1.60;;;23.20;95.70;;;;;;6213133;23;19997;-77
2022/08/23 01:19:46;;;;;;;1.52;1.40;;;23.20;96.40;;;;;;6213174;23;20020;-77
2022/08/23 01:22:33;;;;;;;3.30;1.80;;;23.20;96.60;;;;;;6212918;23;20016;-77
2022/08/23 01:25:03;;;;;;;1.75;1.63;;;23.10;96.80;;;;;;6212956;23;20001;-77
2022/08/23 01:27:29;;;;;;;3.42;1.80;;;23.10;96.30;;;;;;6212695;23;20008;-77
2022/08/23 01:29:54;;;;;;;1.67;1.58;;;23.10;96.60;;;;;;6213484;23;20001;-77
2022/08/23 01:32:20;;;;;;;2.80;1.73;;;23.10;96.50;;;;;;6212898;23;20028;-78
2022/08/23 01:34:46;;;;;;;2.58;1.60;;;23.10;95.70;;;;;;6213154;23;20086;-77
2022/08/23 01:37:13;;;;;;;5.90;1.60;;;23.10;95.60;;;;;;6211092;23;20005;-77
2022/08/23 01:39:39;;;;;;;1.90;1.40;;;23.10;95.20;;;;;;6212776;23;20008;-78
2022/08/23 01:42:06;;;;;;;6.97;2.30;;;23.10;95.60;;;;;;6212618;23;20008;-78
2022/08/23 01:44:33;;;;;;;3.20;1.52;;;23.10;96.60;;;;;;6211503;23;20016;-78
2022/08/23 01:46:59;;;;;;;1.60;1.50;;;23.00;96.90;;;;;;6212691;23;20075;-77
2022/08/23 01:49:25;;;;;;;1.40;1.30;;;22.90;96.50;;;;;;6211262;23;20463;-78
2022/08/23 01:51:50;;;;;;;3.00;1.52;;;22.90;96.70;;;;;;6213200;23;20420;-78
2022/08/23 01:54:16;;;;;;;1.70;1.40;;;22.90;96.30;;;;;;6212111;23;20004;-77
2022/08/23 01:56:42;;;;;;;2.15;1.58;;;22.90;96.60;;;;;;6211293;23;20317;-78
2022/08/23 01:59:09;;;;;;;2.25;1.67;;;22.90;96.30;;;;;;6211167;23;20005;-77
2022/08/23 02:01:36;;;;;;;3.10;1.70;;;22.90;96.20;;;;;;6211388;23;20017;-78
2022/08/23 02:04:01;;;;;;;2.00;1.60;;;22.90;96.00;;;;;;6212226;23;20027;-78
2022/08/23 02:06:28;;;;;;;1.65;1.55;;;22.90;95.90;;;;;;6213159;23;20483;-78
2022/08/23 02:09:00;;;;;;;1.92;1.67;;;23.00;96.40;;;;;;6211633;23;20005;-77
2022/08/23 02:11:34;;;;;;;3.40;1.63;;;23.00;96.00;;;;;;6211396;23;20005;-77
2022/08/23 02:14:07;;;;;;;1.63;1.45;;;23.00;96.30;;;;;;6215632;23;20024;-78
2022/08/23 02:16:36;;;;;;;2.75;1.52;;;23.10;96.40;;;;;;6216492;23;20005;-78
2022/08/23 02:19:05;;;;;;;1.48;1.23;;;23.10;96.10;;;;;;6214368;23;20444;-78
2022/08/23 02:21:33;;;;;;;2.70;1.70;;;23.10;96.50;;;;;;6216300;23;20036;-78
2022/08/23 02:24:05;;;;;;;1.88;1.70;;;23.10;96.50;;;;;;6215195;23;19997;-78
2022/08/23 02:26:30;;;;;;;1.60;1.50;;;23.10;96.50;;;;;;6216191;23;20043;-77
2022/08/23 02:28:56;;;;;;;6.00;1.95;;;23.10;96.50;;;;;;6215665;23;20004;-77
2022/08/23 02:31:22;;;;;;;3.05;1.80;;;23.10;96.50;;;;;;6214908;23;20498;-78
2022/08/23 02:33:48;;;;;;;3.80;1.80;;;23.10;96.80;;;;;;6215579;23;20003;-77
2022/08/23 02:36:15;;;;;;;2.03;1.65;;;23.10;96.70;;;;;;6215817;23;20054;-77
2022/08/23 02:38:41;;;;;;;1.60;1.50;;;23.10;97.40;;;;;;6215420;23;19997;-77
2022/08/23 02:41:08;;;;;;;2.17;1.50;;;23.10;97.90;;;;;;6216084;23;20036;-78
2022/08/23 02:43:36;;;;;;;2.20;1.60;;;23.00;98.00;;;;;;6213902;23;20000;-78
2022/08/23 02:46:05;;;;;;;1.85;1.70;;;23.00;98.00;;;;;;6216069;23;20001;-76
2022/08/23 02:48:32;;;;;;;2.20;1.45;;;22.90;98.10;;;;;;6215689;23;19996;-77
2022/08/23 02:51:00;;;;;;;1.67;1.58;;;22.90;98.00;;;;;;6216283;23;20004;-76
2022/08/23 02:53:25;;;;;;;3.88;1.92;;;22.90;97.70;;;;;;6215345;23;20003;-77
2022/08/23 02:55:51;;;;;;;3.72;1.58;;;22.80;97.60;;;;;;6215913;23;20000;-77
2022/08/23 02:58:17;;;;;;;1.70;1.50;;;22.70;97.80;;;;;;6214340;23;20001;-77
2022/08/23 03:00:47;;;;;;;2.63;1.70;;;22.70;97.40;;;;;;6215890;23;20013;-76
2022/08/23 03:03:13;;;;;;;2.40;1.65;;;22.70;97.70;;;;;;6215513;23;20008;-77
2022/08/23 03:05:39;;;;;;;3.22;1.70;;;22.70;98.10;;;;;;6216173;23;20000;-78
2022/08/23 03:08:05;;;;;;;2.15;1.33;;;22.60;97.80;;;;;;6215530;23;19999;-76
2022/08/23 03:10:31;;;;;;;2.33;1.63;;;22.70;97.80;;;;;;6214366;23;20000;-76
2022/08/23 03:12:57;;;;;;;1.95;1.63;;;22.60;97.70;;;;;;6215544;23;20095;-77
2022/08/23 03:15:22;;;;;;;1.85;1.63;;;22.60;97.70;;;;;;6215854;23;20092;-76
2022/08/23 03:17:48;;;;;;;3.85;1.67;;;22.60;97.70;;;;;;6215315;23;20325;-76
2022/08/23 03:20:15;;;;;;;1.63;1.52;;;22.60;97.70;;;;;;6216054;23;20440;-76
2022/08/23 03:22:41;;;;;;;3.92;1.48;;;22.60;97.60;;;;;;6215722;23;20005;-76
2022/08/23 03:25:07;;;;;;;4.32;1.60;;;22.60;97.60;;;;;;6214114;23;20151;-76
2022/08/23 03:27:33;;;;;;;2.70;1.90;;;22.60;97.50;;;;;;6214080;23;20001;-76
2022/08/23 03:29:59;;;;;;;2.50;1.30;;;22.60;97.60;;;;;;6214577;23;20004;-77
2022/08/23 03:32:25;;;;;;;1.50;1.40;;;22.50;97.80;;;;;;6213980;23;20454;-76
2022/08/23 03:34:51;;;;;;;1.42;1.33;;;22.50;97.90;;;;;;6214453;23;20047;-77
2022/08/23 03:37:17;;;;;;;1.80;1.58;;;22.50;97.90;;;;;;6212284;23;20444;-77
2022/08/23 03:39:43;;;;;;;5.40;1.38;;;22.50;97.70;;;;;;6213957;23;20016;-77
2022/08/23 03:42:09;;;;;;;2.72;1.58;;;22.50;97.90;;;;;;6212446;23;20005;-77
2022/08/23 03:44:34;;;;;;;2.15;1.65;;;22.40;97.90;;;;;;6212570;23;20005;-77
2022/08/23 03:47:01;;;;;;;1.67;1.58;;;22.40;97.90;;;;;;6213716;23;20004;-77
2022/08/23 03:49:27;;;;;;;1.92;1.48;;;22.40;97.40;;;;;;6212652;23;20007;-77
2022/08/23 03:51:52;;;;;;;1.75;1.40;;;22.40;97.50;;;;;;6214123;23;20024;-77
2022/08/23 03:54:19;;;;;;;1.60;1.40;;;22.30;98.00;;;;;;6213340;23;20004;-77
2022/08/23 03:57:01;;;;;;;2.53;1.55;;;22.30;98.00;;;;;;6212696;23;20015;-77
2022/08/23 03:59:28;;;;;;;4.18;1.50;;;22.20;97.60;;;;;;6213971;23;20008;-77
2022/08/23 04:01:54;;;;;;;1.80;1.40;;;22.20;97.50;;;;;;6213926;23;20395;-78
2022/08/23 04:04:20;;;;;;;2.58;1.42;;;22.20;97.80;;;;;;6213813;23;20050;-78
2022/08/23 04:06:46;;;;;;;1.98;1.70;;;22.20;97.80;;;;;;6212318;23;20317;-78
2022/08/23 04:09:13;;;;;;;1.58;1.38;;;22.30;97.50;;;;;;6213186;23;20008;-77
2022/08/23 04:11:40;;;;;;;6.13;1.60;;;22.30;97.40;;;;;;6214259;23;20000;-78
2022/08/23 04:14:05;;;;;;;2.92;1.75;;;22.30;97.50;;;;;;6211759;23;20001;-78
2022/08/23 04:16:36;;;;;;;4.22;1.85;;;22.30;97.60;;;;;;6213678;23;20001;-78
2022/08/23 04:19:13;;;;;;;2.72;1.52;;;22.40;97.70;;;;;;6211835;23;20011;-80
2022/08/23 04:21:42;;;;;;;1.88;1.45;;;22.40;97.90;;;;;;6212108;23;20008;-77
2022/08/23 04:24:08;;;;;;;2.15;1.35;;;22.40;97.40;;;;;;6212942;23;20006;-77
2022/08/23 04:26:34;;;;;;;1.75;1.65;;;22.40;97.70;;;;;;6213838;23;20008;-77
2022/08/23 04:29:00;;;;;;;2.20;1.60;;;22.40;97.80;;;;;;6211679;23;20024;-76
2022/08/23 04:31:27;;;;;;;2.75;1.50;;;22.50;97.80;;;;;;6214202;23;20001;-76
2022/08/23 04:33:54;;;;;;;2.13;1.52;;;22.50;97.70;;;;;;6211487;23;20340;-76
2022/08/23 04:36:21;;;;;;;1.75;1.50;;;22.50;97.80;;;;;;6213171;23;19997;-78
2022/08/23 04:38:46;;;;;;;3.17;1.63;;;22.60;97.90;;;;;;6211395;23;20432;-78
2022/08/23 04:43:57;;;;;;;3.85;1.73;;;22.60;97.40;;;;;;6213155;23;20008;-77
2022/08/23 04:46:23;;;;;;;3.17;1.58;;;22.60;96.80;;;;;;6213433;23;20004;-77
2022/08/23 04:48:49;;;;;;;3.85;1.58;;;22.60;96.70;;;;;;6211840;23;20039;-78
2022/08/23 04:51:15;;;;;;;3.17;1.80;;;22.70;96.20;;;;;;6211921;23;20024;-78
2022/08/23 04:53:42;;;;;;;1.88;1.50;;;22.70;96.00;;;;;;6211514;23;20004;-78
2022/08/23 04:56:08;;;;;;;4.30;1.63;;;22.70;95.90;;;;;;6212054;23;20152;-77
2022/08/23 04:58:35;;;;;;;2.40;1.80;;;22.70;95.60;;;;;;6211482;23;20070;-77
2022/08/23 05:01:04;;;;;;;1.50;1.35;;;22.80;95.60;;;;;;6213559;23;20432;-78
2022/08/23 05:03:30;;;;;;;2.28;1.50;;;22.80;95.70;;;;;;6213147;23;19996;-79
2022/08/23 05:05:57;;;;;;;1.85;1.35;;;22.90;95.70;;;;;;6211903;23;20005;-79
2022/08/23 05:08:24;;;;;;;1.70;1.60;;;22.80;95.60;;;;;;6212736;23;20001;-80
2022/08/23 05:10:50;;;;;;;1.40;1.23;;;22.80;95.60;;;;;;6213362;23;20004;-79
2022/08/23 05:13:16;;;;;;;1.65;1.35;;;22.90;95.60;;;;;;6212866;23;20075;-80
2022/08/23 05:15:43;;;;;;;1.70;1.52;;;22.90;95.70;;;;;;6213571;23;20005;-80
2022/08/23 05:18:09;;;;;;;2.47;1.65;;;22.90;95.70;;;;;;6211082;23;20095;-79
2022/08/23 05:20:35;;;;;;;2.22;1.70;;;22.90;95.50;;;;;;6213491;23;20004;-79
2022/08/23 05:23:01;;;;;;;1.40;1.30;;;22.90;95.30;;;;;;6210914;23;20058;-79
2022/08/23 05:25:48;;;;;;;1.67;1.48;;;22.90;95.40;;;;;;6211582;23;20036;-80
2022/08/23 05:28:13;;;;;;;3.40;1.70;;;22.90;95.50;;;;;;6212692;23;20005;-79
2022/08/23 05:30:39;;;;;;;1.33;1.23;;;23.00;95.30;;;;;;6213403;23;19997;-79
2022/08/23 05:33:05;;;;;;;2.58;1.50;;;23.00;95.20;;;;;;6212625;23;20007;-80
2022/08/23 05:35:31;;;;;;;1.58;1.35;;;23.00;95.20;;;;;;6213170;23;20080;-79
2022/08/23 05:38:00;;;;;;;3.92;1.52;;;23.00;95.10;;;;;;6211109;23;20043;-79
2022/08/23 05:40:28;;;;;;;1.40;1.20;;;23.00;95.00;;;;;;6211308;23;20417;-79
2022/08/23 05:42:54;;;;;;;1.42;1.30;;;23.10;95.00;;;;;;6211107;23;20007;-78
2022/08/23 05:45:20;;;;;;;2.47;1.35;;;23.10;95.00;;;;;;6211597;23;20005;-78
2022/08/23 05:47:45;;;;;;;1.70;1.27;;;23.10;95.00;;;;;;6212782;23;19996;-78
2022/08/23 05:50:12;;;;;;;1.50;1.30;;;23.10;95.20;;;;;;6211306;23;20011;-78
2022/08/23 05:52:38;;;;;;;3.38;1.45;;;23.10;95.10;;;;;;6211377;23;20005;-78
2022/08/23 05:55:05;;;;;;;3.92;1.30;;;23.10;95.40;;;;;;6213025;23;20000;-79
2022/08/23 05:57:34;;;;;;;3.85;1.30;;;23.10;95.40;;;;;;6210957;23;20058;-80
2022/08/23 06:00:00;;;;;;;2.15;1.23;;;23.10;95.40;;;;;;6212797;23;20009;-79
2022/08/23 06:02:25;;;;;;;2.75;1.20;;;23.10;95.40;;;;;;6211104;23;20131;-80
2022/08/23 06:04:51;;;;;;;2.45;1.48;;;23.10;95.60;;;;;;6211501;23;20011;-82
2022/08/23 06:07:17;;;;;;;4.35;1.45;;;23.10;95.70;;;;;;6212762;23;20035;-78
2022/08/23 06:09:42;;;;;;;4.13;1.65;;;23.10;95.70;;;;;;6211029;23;20063;-77
2022/08/23 06:12:08;;;;;;;1.83;1.50;;;23.10;95.70;;;;;;6210959;23;20005;-79
2022/08/23 06:14:34;;;;;;;2.47;1.30;;;23.20;95.60;;;;;;6211120;23;20009;-80
2022/08/23 06:17:00;;;;;;;1.85;1.35;;;23.10;95.70;;;;;;6212671;23;20023;-79
2022/08/23 06:19:25;;;;;;;1.88;1.70;;;23.20;95.80;;;;;;6211169;23;20004;-78
2022/08/23 06:21:51;;;;;;;1.38;1.27;;;23.20;95.70;;;;;;6212910;23;20008;-79
2022/08/23 06:24:17;;;;;;;2.20;1.42;;;23.20;95.60;;;;;;6212560;23;20005;-80
2022/08/23 06:26:44;;;;;;;1.65;1.25;;;23.20;95.70;;;;;;6213018;23;20009;-81
2022/08/23 06:29:13;;;;;;;2.20;1.60;;;23.20;95.70;;;;;;6212603;23;20001;-80
2022/08/23 06:31:45;;;;;;;1.95;1.48;;;23.30;95.50;;;;;;6213053;23;20436;-79
2022/08/23 06:34:17;;;;;;;6.22;1.50;;;23.30;95.60;;;;;;6212491;23;20000;-80
2022/08/23 06:36:43;;;;;;;4.85;1.40;;;23.30;95.70;;;;;;6212825;23;20007;-77
2022/08/23 06:39:10;;;;;;;6.20;1.52;;;23.30;95.80;;;;;;6210431;23;20079;-76
2022/08/23 06:41:36;;;;;;;3.13;1.73;;;23.40;95.60;;;;;;6212658;23;20083;-75
2022/08/23 06:44:03;;;;;;;2.05;1.80;;;23.50;95.60;;;;;;6212216;23;20237;-76
2022/08/23 06:46:29;;;;;;;3.10;1.63;;;23.50;95.90;;;;;;6212855;23;20005;-77
2022/08/23 06:48:56;;;;;;;5.25;1.80;;;23.50;96.00;;;;;;6210610;23;20001;-77
2022/08/23 06:51:29;;;;;;;4.88;1.55;;;23.50;95.80;;;;;;6212537;23;20360;-75
2022/08/23 06:53:57;;;;;;;3.78;1.63;;;23.50;96.00;;;;;;6211855;23;19997;-75
2022/08/23 06:56:25;;;;;;;1.88;1.63;;;23.60;96.30;;;;;;6212600;23;20005;-78
2022/08/23 06:58:52;;;;;;;2.35;1.30;;;23.60;96.30;;;;;;6212300;23;19997;-78
2022/08/23 07:01:31;;;;;;;4.95;1.70;;;23.70;96.30;;;;;;6214602;23;20016;-78
2022/08/23 07:03:58;;;;;;;2.60;1.50;;;23.80;96.60;;;;;;6214362;23;20003;-79
2022/08/23 07:06:25;;;;;;;1.40;1.30;;;24.00;96.60;;;;;;6214681;23;20011;-79
2022/08/23 07:08:51;;;;;;;4.10;1.70;;;24.20;96.40;;;;;;6212267;23;20007;-79
2022/08/23 07:11:18;;;;;;;2.58;1.63;;;24.30;96.00;;;;;;6214393;23;20321;-79
2022/08/23 07:13:44;;;;;;;1.73;1.58;;;24.50;95.90;;;;;;6214070;23;20052;-78
2022/08/23 07:16:10;;;;;;;2.10;1.60;;;24.60;96.20;;;;;;6214661;23;20004;-79
2022/08/23 07:18:36;;;;;;;1.50;1.40;;;24.50;95.70;;;;;;6213708;23;20012;-79
2022/08/23 07:21:04;;;;;;;2.42;1.80;;;24.60;95.60;;;;;;6212818;23;20498;-78
2022/08/23 07:23:32;;;;;;;2.15;1.85;;;24.50;96.00;;;;;;6213921;23;19999;-77
2022/08/23 07:26:05;;;;;;;1.85;1.30;;;24.50;96.10;;;;;;6214487;23;20001;-78
2022/08/23 07:28:31;;;;;;;2.40;1.70;;;24.50;96.50;;;;;;6214030;23;20420;-76
2022/08/23 07:31:09;;;;;;;6.05;1.98;;;24.60;96.20;;;;;;6214299;23;20065;-76
2022/08/23 07:33:36;;;;;;;1.90;1.70;;;24.60;96.10;;;;;;6214008;23;20005;-76
2022/08/23 07:36:02;;;;;;;2.20;1.60;;;24.60;95.70;;;;;;6212623;23;20391;-77
2022/08/23 07:38:28;;;;;;;1.60;1.35;;;24.50;95.90;;;;;;6211977;23;20290;-76
2022/08/23 07:40:54;;;;;;;2.65;1.40;;;24.50;95.90;;;;;;6212615;23;20356;-77
2022/08/23 07:43:20;;;;;;;2.65;1.80;;;24.40;96.00;;;;;;6214086;23;19996;-77
2022/08/23 07:45:47;;;;;;;1.63;1.33;;;24.40;96.10;;;;;;6213973;23;20024;-76
2022/08/23 07:48:13;;;;;;;1.48;1.38;;;24.30;96.10;;;;;;6212185;23;20442;-78
2022/08/23 07:50:40;;;;;;;2.70;1.20;;;24.20;96.00;;;;;;6214573;23;20009;-76
2022/08/23 07:53:08;;;;;;;2.00;1.05;;;24.30;96.10;;;;;;6212300;23;20263;-77
2022/08/23 07:55:38;;;;;;;1.50;1.10;;;24.30;96.10;;;;;;6214275;23;20028;-77
2022/08/23 07:58:04;;;;;;;1.20;1.10;;;24.30;96.10;;;;;;6214516;23;20347;-77
2022/08/23 08:00:30;;;;;;;1.75;1.23;;;24.40;96.10;;;;;;6213775;23;20044;-77
2022/08/23 08:02:55;;;;;;;4.90;1.15;;;24.40;96.00;;;;;;6215105;23;20076;-77
2022/08/23 08:05:21;;;;;;;1.85;1.27;;;24.50;96.00;;;;;;6214591;23;20004;-75
2022/08/23 08:07:47;;;;;;;1.30;1.10;;;24.50;95.70;;;;;;6212843;23;20008;-78
2022/08/23 08:10:12;;;;;;;2.35;1.30;;;24.60;95.50;;;;;;6212196;23;20289;-77
2022/08/23 08:12:38;;;;;;;2.17;1.00;;;24.60;95.70;;;;;;6211916;23;20016;-77
2022/08/23 08:15:04;;;;;;;2.15;1.02;;;24.60;95.60;;;;;;6213931;23;20695;-77
2022/08/23 08:17:30;;;;;;;1.30;1.00;;;24.80;95.70;;;;;;6211525;23;20393;-76
2022/08/23 08:19:56;;;;;;;1.55;1.15;;;24.80;95.80;;;;;;6213440;23;20482;-76
2022/08/23 08:22:21;;;;;;;3.53;1.35;;;25.00;96.00;;;;;;6212413;23;20000;-77
2022/08/23 08:24:47;;;;;;;4.15;0.93;;;25.10;95.70;;;;;;6211023;23;20084;-76
2022/08/23 08:27:13;;;;;;;1.38;1.13;;;25.20;96.00;;;;;;6212767;23;20040;-78
2022/08/23 08:29:39;;;;;;;3.47;1.30;;;25.20;95.40;;;;;;6212384;23;20001;-78
2022/08/23 08:32:06;;;;;;;1.17;0.90;;;25.30;95.40;;;;;;6210721;23;20013;-77
2022/08/23 08:34:31;;;;;;;1.02;0.93;;;25.30;95.30;;;;;;6210736;23;20005;-77
2022/08/23 08:36:57;;;;;;;1.50;0.93;;;25.40;95.60;;;;;;6212867;23;20511;-76
2022/08/23 08:39:28;;;;;;;2.55;1.10;;;25.50;95.30;;;;;;6212620;23;20005;-77
2022/08/23 08:42:22;;;;;;;5.63;1.45;;;25.50;95.40;;;;;;6212866;23;20013;-78
2022/08/23 08:45:04;;;;;;;1.73;1.30;;;25.60;95.20;;;;;;6213557;23;20011;-76
2022/08/23 08:47:34;;;;;;;1.85;1.10;;;25.70;95.40;;;;;;6213246;23;20105;-75
2022/08/23 08:50:13;;;;;;;2.97;1.25;;;25.80;95.60;;;;;;6213826;23;20001;-76
2022/08/23 08:52:45;;;;;;;3.95;1.30;;;26.00;95.00;;;;;;6211858;23;20046;-76
2022/08/23 08:55:17;;;;;;;1.48;1.20;;;26.20;95.30;;;;;;6211457;23;20084;-75
2022/08/23 08:57:44;;;;;;;;;;;26.30;95.50;;;;;;6213603;23;20344;-76
2022/08/23 09:00:14;;;;;;;3.15;1.35;;;26.30;95.30;;;;;;6212139;23;20320;-76
2022/08/23 09:02:41;;;;;;;2.50;1.35;;;26.40;94.70;;;;;;6213236;23;20012;-77
2022/08/23 09:05:11;;;;;;;4.93;1.08;;;26.40;94.70;;;;;;6213606;23;19997;-76
2022/08/23 09:08:11;;;;;;;0.93;0.93;;;26.40;94.90;;;;;;6210799;23;20008;-75
2022/08/23 09:10:46;;;;;;;2.33;1.42;;;26.60;94.70;;;;;;6213415;23;20000;-75
2022/08/23 09:13:42;;;;;;;2.17;1.15;;;26.70;94.60;;;;;;6212933;23;20004;-76
2022/08/23 09:16:23;;;;;;;3.15;1.25;;;27.00;94.50;;;;;;6212353;23;20007;-76
2022/08/23 09:18:50;;;;;;;4.25;1.23;;;27.20;94.60;;;;;;6210916;23;20466;-76
2022/08/23 09:21:16;;;;;;;1.98;1.35;;;27.30;94.70;;;;;;6213220;23;20004;-76
2022/08/23 09:23:46;;;;;;;4.25;1.50;;;27.40;94.30;;;;;;6211639;23;19997;-76
2022/08/23 09:26:22;;;;;;;2.05;1.10;;;27.60;93.70;;;;;;6209927;23;20013;-75
2022/08/23 09:28:50;;;;;;;2.05;1.52;;;27.60;93.90;;;;;;6210635;23;20361;-76
2022/08/23 09:31:40;;;;;;;1.63;1.38;;;27.50;93.60;;;;;;6212149;23;20008;-77
2022/08/23 09:34:07;;;;;;;1.70;1.20;;;27.40;94.00;;;;;;6212526;23;20027;-83
2022/08/23 09:36:36;;;;;;;3.95;1.38;;;27.40;93.80;;;;;;6212604;23;21227;-76
2022/08/23 09:39:08;;;;;;;1.35;1.25;;;27.30;93.80;;;;;;6210161;23;20016;-76
2022/08/23 09:41:38;;;;;;;2.08;1.60;;;27.30;94.20;;;;;;6212046;23;20019;-76
2022/08/23 09:44:08;;;;;;;2.10;1.50;;;27.30;94.40;;;;;;6211649;23;20344;-76
2022/08/23 09:46:37;;;;;;;1.48;1.30;;;27.30;94.20;;;;;;6212429;23;19997;-76
2022/08/23 09:49:28;;;;;;;2.50;1.40;;;27.30;94.70;;;;;;6212262;23;20004;-76
2022/08/23 09:51:57;;;;;;;2.00;1.17;;;27.40;94.20;;;;;;6209614;23;20331;-76
2022/08/23 09:54:34;;;;;;;2.88;1.40;;;27.30;93.80;;;;;;6211025;23;20001;-76
2022/08/23 09:57:03;;;;;;;1.73;1.17;;;27.20;93.90;;;;;;6210996;23;20560;-75
2022/08/23 09:59:45;;;;;;;3.38;1.35;;;27.10;93.60;;;;;;6212680;23;20456;-76
2022/08/23 10:02:22;;;;;;;2.83;1.27;;;27.00;93.90;;;;;;6211649;23;20380;-76
2022/08/23 10:05:00;;;;;;;1.90;1.13;;;27.00;94.00;;;;;;6211151;23;20413;-77
2022/08/23 10:07:34;;;;;;;1.30;1.20;;;27.20;94.00;;;;;;6208843;23;20047;-76
2022/08/23 10:10:34;;;;;;;1.67;1.08;;;27.50;93.50;;;;;;6208693;23;20036;-77
2022/08/23 10:13:02;;;;;;;1.70;1.20;;;27.70;93.00;;;;;;6208598;23;20011;-76
2022/08/23 10:15:52;;;;;;;3.05;1.25;;;28.00;93.20;;;;;;6209331;23;20009;-77
2022/08/23 10:18:42;;;;;;;2.70;0.93;;;28.30;91.40;;;;;;6210033;23;20086;-76
2022/08/23 10:21:20;;;;;;;1.13;1.00;;;28.60;91.40;;;;;;6208905;23;20109;-76
2022/08/23 10:24:09;;;;;;;1.23;1.00;;;28.70;91.10;;;;;;6212465;23;19996;-77
2022/08/23 10:26:43;;;;;;;5.93;1.15;;;28.70;90.50;;;;;;6213102;23;20007;-75
2022/08/23 10:29:38;;;;;;;1.40;1.10;;;28.60;90.40;;;;;;6212300;23;20424;-76
2022/08/23 10:32:19;;;;;;;1.70;0.95;;;28.50;90.80;;;;;;6212689;23;20005;-76
2022/08/23 10:35:29;;;;;;;1.57;0.87;;;28.50;90.70;;;;;;6214163;23;20421;-78
2022/08/23 10:38:20;;;;;;;1.40;1.00;;;28.60;90.60;;;;;;6212925;23;20651;-76
2022/08/23 10:41:01;;;;;;;3.42;1.20;;;28.50;90.50;;;;;;6214411;23;20020;-76
2022/08/23 10:43:41;;;;;;;1.20;1.08;;;28.40;90.70;;;;;;6214290;23;20109;-75
2022/08/23 10:46:08;;;;;;;1.58;1.20;;;28.50;90.60;;;;;;6214751;23;20012;-77
2022/08/23 10:48:50;;;;;;;0.90;0.90;;;28.70;90.50;;;;;;6214184;23;19996;-77
2022/08/23 10:51:24;;;;;;;0.73;0.73;;;28.80;90.80;;;;;;6215054;23;20492;-76
2022/08/23 10:54:07;;;;;;;0.65;0.65;;;29.00;90.70;;;;;;6214170;23;19997;-76
2022/08/23 10:56:35;;;;;;;3.85;0.98;;;29.30;90.40;;;;;;6214651;23;20033;-76
2022/08/23 10:59:09;;;;;;;0.98;0.90;;;29.50;89.70;;;;;;6212728;23;20001;-76
2022/08/23 11:01:53;;;;;;;1.05;0.80;;;29.70;90.10;;;;;;6213141;23;20012;-76
2022/08/23 11:04:32;;;;;;;0.50;0.50;;;29.70;88.80;;;;;;6214764;23;20079;-76
2022/08/23 11:07:01;;;;;;;3.17;1.00;;;29.80;88.00;;;;;;6214374;23;20001;-77
2022/08/23 11:09:29;;;;;;;1.60;0.73;;;29.80;88.50;;;;;;6214104;23;19997;-77
2022/08/23 11:12:23;;;;;;;1.70;0.70;;;29.70;88.30;;;;;;6214635;23;20001;-76
2022/08/23 11:14:55;;;;;;;1.10;0.80;;;29.70;89.40;;;;;;6212889;23;20324;-76
2022/08/23 11:17:28;;;;;;;1.30;0.90;;;29.70;87.50;;;;;;6214140;23;20020;-77
2022/08/23 11:20:01;;;;;;;1.23;0.60;;;29.80;87.60;;;;;;6213045;23;20008;-77
2022/08/23 11:22:29;;;;;;;0.98;0.70;;;29.80;87.40;;;;;;6214099;23;20001;-76
2022/08/23 11:25:02;;;;;;;1.85;1.00;;;29.60;86.80;;;;;;6214293;23;20111;-76
2022/08/23 11:27:39;;;;;;;1.48;0.90;;;29.30;88.90;;;;;;6212453;23;20172;-76
2022/08/23 11:30:33;;;;;;;1.00;0.90;;;29.20;90.30;;;;;;6212631;23;20020;-76
2022/08/23 11:33:17;;;;;;;1.52;1.00;;;29.20;89.60;;;;;;6212259;23;20734;-78
2022/08/23 11:36:17;;;;;;;1.08;0.77;;;29.10;90.10;;;;;;6212853;23;20317;-78
2022/08/23 11:38:45;;;;;;;0.95;0.70;;;29.20;90.10;;;;;;6212256;23;20344;-77
2022/08/23 11:41:33;;;;;;;2.03;1.10;;;29.20;88.90;;;;;;6213980;23;20096;-75
2022/08/23 11:44:02;;;;;;;1.67;0.90;;;29.00;89.50;;;;;;6213688;23;20083;-75
2022/08/23 11:46:35;;;;;;;1.48;1.00;;;28.80;89.80;;;;;;6212320;23;20008;-78
2022/08/23 11:49:29;;;;;;;0.82;0.80;;;28.50;90.00;;;;;;6213760;23;20024;-76
2022/08/23 11:52:31;;;;;;;1.23;0.98;;;28.30;90.00;;;;;;6214309;23;20004;-76
2022/08/23 11:55:22;;;;;;;1.98;0.80;;;28.10;90.40;;;;;;6214062;23;20435;-77
2022/08/23 11:58:14;;;;;;;2.13;0.70;;;28.00;90.50;;;;;;6212042;23;20007;-79
2022/08/23 12:00:54;;;;;;;3.03;1.00;;;28.00;91.30;;;;;;6213489;23;20023;-77
2022/08/23 12:03:25;;;;;;;1.33;0.90;;;28.30;90.90;;;;;;6212054;23;20005;-76
2022/08/23 12:05:51;;;;;;;3.45;0.95;;;28.50;90.50;;;;;;6214015;23;20011;-78
2022/08/23 12:08:21;;;;;;;0.73;0.57;;;28.70;90.60;;;;;;6213810;23;19997;-77
2022/08/23 12:10:47;;;;;;;5.50;0.70;;;28.90;90.50;;;;;;6213782;23;20458;-79
2022/08/23 12:13:19;;;;;;;2.10;0.80;;;29.80;90.00;;;;;;6211900;23;20088;-79
2022/08/23 12:16:20;;;;;;;;;;;31.00;86.80;;;;;;6212903;23;20028;-79
2022/08/23 12:18:46;;;;;;;1.30;0.85;;;31.10;85.40;;;;;;6121210;23;19916;-79
2022/08/23 12:21:35;;;;;;;1.45;0.70;;;30.90;86.60;;;;;;6194677;23;20100;-79
2022/08/23 12:24:12;;;;;;;5.68;0.93;;;30.70;85.80;;;;;;6213380;23;20001;-78
2022/08/23 12:26:44;;;;;;;1.13;0.68;;;32.20;84.00;;;;;;6214024;23;20047;-76
2022/08/23 12:29:23;;;;;;;0.70;0.50;;;34.60;79.70;;;;;;6213662;23;20062;-77
2022/08/23 12:32:12;;;;;;;0.45;0.43;;;37.60;75.10;;;;;;6213607;23;20129;-78
2022/08/23 12:34:59;;;;;;;1.98;0.60;;;39.50;70.40;;;;;;6213825;23;20043;-77
2022/08/23 12:37:30;;;;;;;1.30;0.65;;;40.40;67.90;;;;;;6213433;23;20044;-77
2022/08/23 12:40:00;;;;;;;1.17;0.60;;;40.10;67.90;;;;;;6213281;23;20079;-77
2022/08/23 12:42:30;;;;;;;0.47;0.45;;;41.00;65.80;;;;;;6213308;23;20246;-78
2022/08/23 12:45:14;;;;;;;1.77;0.63;;;42.70;64.30;;;;;;6213433;23;19996;-78
2022/08/23 12:47:42;;;;;;;1.80;0.60;;;44.50;59.80;;;;;;6213166;23;20080;-79
2022/08/23 12:50:13;;;;;;;0.77;0.50;;;45.60;59.00;;;;;;6213778;23;20000;-78
2022/08/23 12:52:39;;;;;;;0.47;0.47;;;46.60;56.50;;;;;;6211639;23;20084;-78
2022/08/23 12:55:14;;;;;;;0.63;0.60;;;47.50;54.50;;;;;;6213507;23;20001;-78
2022/08/23 12:57:42;;;;;;;0.60;0.60;;;47.90;52.60;;;;;;6211410;23;20458;-77
2022/08/23 13:00:33;;;;;;;0.52;0.47;;;46.60;53.20;;;;;;6213628;23;20007;-81
2022/08/23 13:03:03;;;;;;;0.30;0.30;;;44.60;55.90;;;;;;6213266;23;20036;-80
2022/08/23 13:05:32;;;;;;;;;;;44.30;55.60;;;;;;6212501;23;20062;-78
2022/08/23 13:08:01;;;;;;;0.50;0.50;;;43.80;56.60;;;;;;6213257;23;19900;-77
2022/08/23 13:10:27;;;;;;;0.73;0.60;;;42.90;56.30;;;;;;6213122;23;20027;-77
2022/08/23 13:12:53;;;;;;;1.25;0.40;;;41.50;57.90;;;;;;6211382;23;20428;-77
2022/08/23 13:15:46;;;;;;;1.45;0.50;;;40.00;59.20;;;;;;6213335;23;20417;-77